createdAt,value
2023-02-24T00:02:29.526Z,6.32
2023-02-24T00:05:16.659Z,6.32
2023-02-24T00:08:03.672Z,6.30
2023-02-24T00:10:50.628Z,6.27
2023-02-24T00:13:37.621Z,6.26
2023-02-24T00:16:25.916Z,6.25
2023-02-24T00:19:16.348Z,6.27
2023-02-24T00:22:05.323Z,6.25
2023-02-24T00:24:53.804Z,6.22
2023-02-24T00:27:40.892Z,6.21
2023-02-24T00:30:29.783Z,6.19
2023-02-24T00:33:16.845Z,6.19
2023-02-24T00:36:08.676Z,6.19
2023-02-24T00:39:09.414Z,6.18
2023-02-24T00:42:04.913Z,6.15
2023-02-24T00:44:54.129Z,6.15
2023-02-24T00:47:41.134Z,6.13
2023-02-24T00:50:28.151Z,6.12
2023-02-24T00:53:18.363Z,6.11
2023-02-24T00:56:07.386Z,6.11
2023-02-24T00:58:55.759Z,6.12
2023-02-24T01:01:45.279Z,6.11
2023-02-24T01:04:32.425Z,6.08
2023-02-24T01:07:19.470Z,6.06
2023-02-24T01:10:08.654Z,6.07
2023-02-24T01:12:55.610Z,6.05
2023-02-24T01:15:42.570Z,6.06
2023-02-24T01:18:31.186Z,6.06
2023-02-24T01:21:19.952Z,6.04
2023-02-24T01:24:07.196Z,6.04
2023-02-24T01:26:54.165Z,6.02
2023-02-24T01:29:41.546Z,6.03
2023-02-24T01:32:32.035Z,6.01
2023-02-24T01:35:19.142Z,6.00
2023-02-24T01:38:06.135Z,6.01
2023-02-24T01:40:59.301Z,5.97
2023-02-24T01:44:17.123Z,5.95
2023-02-24T01:47:04.108Z,5.97
2023-02-24T01:49:54.575Z,5.97
2023-02-24T01:52:44.596Z,5.95
2023-02-24T01:55:36.936Z,5.95
2023-02-24T01:58:26.753Z,5.95
2023-02-24T02:01:16.845Z,5.93
2023-02-24T02:04:09.779Z,5.93
2023-02-24T02:06:57.445Z,5.92
2023-02-24T02:09:47.040Z,5.92
2023-02-24T02:12:37.245Z,5.91
2023-02-24T02:15:24.465Z,5.89
2023-02-24T02:18:41.150Z,5.87
2023-02-24T02:21:33.974Z,5.82
2023-02-24T02:24:39.374Z,5.79
2023-02-24T02:27:38.562Z,5.78
2023-02-24T02:30:43.810Z,5.80
2023-02-24T02:34:07.750Z,5.79
2023-02-24T02:37:16.188Z,5.77
2023-02-24T02:40:21.754Z,5.75
2023-02-24T02:43:32.720Z,5.76
2023-02-24T02:46:35.421Z,5.78
2023-02-24T02:49:34.497Z,5.77
2023-02-24T02:52:35.142Z,5.77
2023-02-24T02:55:42.229Z,5.77
2023-02-24T02:58:38.069Z,5.78
2023-02-24T03:01:37.388Z,5.78
2023-02-24T03:04:26.651Z,5.79
2023-02-24T03:07:17.859Z,5.81
2023-02-24T03:10:11.309Z,5.83
2023-02-24T03:13:02.146Z,5.84
2023-02-24T03:15:52.384Z,5.83
2023-02-24T03:18:51.053Z,5.81
2023-02-24T03:21:46.766Z,5.77
2023-02-24T03:24:38.958Z,5.72
2023-02-24T03:27:35.321Z,5.73
2023-02-24T03:30:27.722Z,5.71
2023-02-24T03:33:16.820Z,5.73
2023-02-24T03:36:04.387Z,5.70
2023-02-24T03:38:51.309Z,5.68
2023-02-24T03:41:50.090Z,5.65
2023-02-24T03:44:37.018Z,5.63
2023-02-24T03:47:25.673Z,5.61
2023-02-24T03:50:17.618Z,5.58
2023-02-24T03:53:04.456Z,5.54
2023-02-24T03:56:11.003Z,5.50
2023-02-24T03:59:23.811Z,5.47
2023-02-24T04:02:31.112Z,5.45
2023-02-24T04:05:24.127Z,5.47
2023-02-24T04:08:11.235Z,5.52
2023-02-24T04:11:14.311Z,5.57
2023-02-24T04:14:08.045Z,5.61
2023-02-24T04:17:13.452Z,5.61
2023-02-24T04:20:23.953Z,5.59
2023-02-24T04:23:18.233Z,5.59
2023-02-24T04:26:06.471Z,5.57
2023-02-24T04:28:55.212Z,5.58
2023-02-24T04:31:42.442Z,5.61
2023-02-24T04:34:32.554Z,5.65
2023-02-24T04:37:23.246Z,5.69
2023-02-24T04:40:12.382Z,5.73
2023-02-24T04:42:59.412Z,5.78
2023-02-24T04:45:46.498Z,5.82
2023-02-24T04:48:35.117Z,5.87
2023-02-24T04:51:22.676Z,5.89
2023-02-24T04:54:17.471Z,5.89
2023-02-24T04:57:07.376Z,5.88
2023-02-24T04:59:54.555Z,5.84
2023-02-24T05:02:41.516Z,5.83
2023-02-24T05:05:28.868Z,5.82
2023-02-24T05:08:15.910Z,5.82
2023-02-24T05:11:05.674Z,5.83
2023-02-24T05:13:52.602Z,5.83
2023-02-24T05:16:39.598Z,5.84
2023-02-24T05:19:45.390Z,5.86
2023-02-24T05:22:32.320Z,5.84
2023-02-24T05:25:20.444Z,5.83
2023-02-24T05:28:07.603Z,5.82
2023-02-24T05:30:56.346Z,5.84
2023-02-24T05:33:45.415Z,5.85
2023-02-24T05:36:36.605Z,5.87
2023-02-24T05:39:27.102Z,5.90
2023-02-24T05:42:14.079Z,5.91
2023-02-24T05:45:01.781Z,5.88
2023-02-24T05:47:48.827Z,5.85
2023-02-24T05:50:35.778Z,5.82
2023-02-24T05:53:23.665Z,5.81
2023-02-24T05:56:11.526Z,5.81
2023-02-24T05:59:03.706Z,5.86
2023-02-24T06:01:53.795Z,5.92
2023-02-24T06:04:54.093Z,5.95
2023-02-24T06:07:43.165Z,5.99
2023-02-24T06:10:31.973Z,6.02
2023-02-24T06:13:18.946Z,6.06
2023-02-24T06:16:06.948Z,6.08
2023-02-24T06:18:56.601Z,6.10
2023-02-24T06:21:43.893Z,6.14
2023-02-24T06:24:33.420Z,6.16
2023-02-24T06:27:21.797Z,6.21
2023-02-24T06:30:10.429Z,6.25
2023-02-24T06:32:57.645Z,6.29
2023-02-24T06:35:44.679Z,6.31
2023-02-24T06:38:32.874Z,6.35
2023-02-24T06:41:20.210Z,6.37
2023-02-24T06:44:07.362Z,6.40
2023-02-24T06:46:54.297Z,6.43
2023-02-24T06:49:42.983Z,6.45
2023-02-24T06:52:30.939Z,6.45
2023-02-24T06:55:27.717Z,6.46
2023-02-24T06:58:24.770Z,6.46
2023-02-24T07:01:13.847Z,6.47
2023-02-24T07:04:13.030Z,6.46
2023-02-24T07:07:03.703Z,6.47
2023-02-24T07:09:51.792Z,6.47
2023-02-24T07:12:39.244Z,6.48
2023-02-24T07:15:32.095Z,6.45
2023-02-24T07:18:19.604Z,6.44
2023-02-24T07:21:11.602Z,6.43
2023-02-24T07:23:59.421Z,6.41
2023-02-24T07:26:51.792Z,6.40
2023-02-24T07:29:39.390Z,6.40
2023-02-24T07:32:26.474Z,6.46
2023-02-24T07:35:14.592Z,6.50
2023-02-24T07:38:05.062Z,6.54
2023-02-24T07:40:57.265Z,6.57
2023-02-24T07:43:44.247Z,6.60
2023-02-24T07:46:31.300Z,6.63
2023-02-24T07:49:25.966Z,6.65
2023-02-24T07:52:13.125Z,6.68
2023-02-24T07:55:00.297Z,6.69
2023-02-24T07:57:48.527Z,6.72
2023-02-24T08:00:55.492Z,6.74
2023-02-24T08:03:42.407Z,6.78
2023-02-24T08:06:38.129Z,6.82
2023-02-24T08:09:45.638Z,6.85
2023-02-24T08:12:35.324Z,6.91
2023-02-24T08:15:24.761Z,6.96
2023-02-24T08:18:12.670Z,6.99
2023-02-24T08:21:04.652Z,7.02
2023-02-24T08:23:53.148Z,7.03
2023-02-24T08:26:44.806Z,7.07
2023-02-24T08:29:58.142Z,7.07
2023-02-24T08:32:46.739Z,7.11
2023-02-24T08:35:36.964Z,7.13
2023-02-24T08:38:26.394Z,7.15
2023-02-24T08:41:18.465Z,7.20
2023-02-24T08:44:05.602Z,7.22
2023-02-24T08:46:54.002Z,7.26
2023-02-24T08:49:40.994Z,7.31
2023-02-24T08:52:29.505Z,7.35
2023-02-24T08:55:23.125Z,7.39
2023-02-24T08:58:18.153Z,7.42
2023-02-24T09:01:05.277Z,7.44
2023-02-24T09:03:55.824Z,7.44
2023-02-24T09:07:10.766Z,7.48
2023-02-24T09:09:59.856Z,7.50
2023-02-24T09:12:49.114Z,7.52
2023-02-24T09:15:41.547Z,7.53
2023-02-24T09:18:38.400Z,7.54
2023-02-24T09:22:00.171Z,7.55
2023-02-24T09:24:51.091Z,7.54
2023-02-24T09:27:42.333Z,7.54
2023-02-24T09:30:39.084Z,7.54
2023-02-24T09:33:39.216Z,7.54
2023-02-24T09:36:30.227Z,7.55
2023-02-24T09:39:17.194Z,7.57
2023-02-24T09:42:24.124Z,7.58
2023-02-24T09:45:23.231Z,7.58
2023-02-24T09:48:21.422Z,7.60
2023-02-24T09:51:10.596Z,7.64
2023-02-24T09:54:02.047Z,7.66
2023-02-24T09:57:08.421Z,7.68
2023-02-24T10:00:22.417Z,7.67
2023-02-24T10:03:42.629Z,7.68
2023-02-24T10:06:35.554Z,7.68
2023-02-24T10:09:39.630Z,7.68
2023-02-24T10:12:40.112Z,7.70
2023-02-24T10:15:59.032Z,7.73
2023-02-24T10:19:01.448Z,7.75
2023-02-24T10:22:00.536Z,7.80
2023-02-24T10:25:01.459Z,7.86
2023-02-24T10:28:15.035Z,7.94
2023-02-24T10:31:25.413Z,8.04
2023-02-24T10:34:25.414Z,8.13
2023-02-24T10:37:27.648Z,8.21
2023-02-24T10:40:26.496Z,8.29
2023-02-24T10:43:19.786Z,8.39
2023-02-24T10:46:06.846Z,8.43
2023-02-24T10:49:01.013Z,8.45
2023-02-24T10:51:52.243Z,8.44
2023-02-24T10:55:05.015Z,8.43
2023-02-24T10:57:59.273Z,8.48
2023-02-24T11:00:57.765Z,8.63
2023-02-24T11:04:02.355Z,8.80
2023-02-24T11:06:52.886Z,8.94
2023-02-24T11:09:52.897Z,9.22
2023-02-24T11:13:09.875Z,9.54
2023-02-24T11:16:16.328Z,9.78
2023-02-24T11:19:06.806Z,10.09
2023-02-24T11:21:56.179Z,10.28
2023-02-24T11:24:45.873Z,10.35
2023-02-24T11:27:33.116Z,10.36
2023-02-24T11:30:41.058Z,10.41
2023-02-24T11:33:41.288Z,10.57
2023-02-24T11:36:41.790Z,10.89
2023-02-24T11:39:55.382Z,11.03
2023-02-24T11:43:20.656Z,11.12
2023-02-24T11:46:15.464Z,11.13
2023-02-24T11:49:09.244Z,11.12
2023-02-24T11:51:59.588Z,11.24
2023-02-24T11:54:54.046Z,11.35
2023-02-24T11:57:50.485Z,11.28
2023-02-24T12:00:51.647Z,11.07
2023-02-24T12:03:51.295Z,10.88
2023-02-24T12:07:06.770Z,10.75
2023-02-24T12:10:15.980Z,10.63
2023-02-24T12:13:09.617Z,10.60
2023-02-24T12:16:04.780Z,10.60
2023-02-24T12:19:46.844Z,10.56
2023-02-24T12:22:46.766Z,10.52
2023-02-24T12:25:53.499Z,10.53
2023-02-24T12:28:46.531Z,10.45
2023-02-24T12:31:42.457Z,10.49
2023-02-24T12:34:54.133Z,10.52
2023-02-24T12:37:51.357Z,10.53
2023-02-24T12:40:55.174Z,10.52
2023-02-24T12:44:17.702Z,10.56
2023-02-24T12:47:21.071Z,10.55
2023-02-24T12:50:34.286Z,10.52
2023-02-24T12:53:30.835Z,10.45
2023-02-24T12:56:27.965Z,10.43
2023-02-24T12:59:20.295Z,10.35
2023-02-24T13:02:26.048Z,10.31
2023-02-24T13:05:15.774Z,10.32
2023-02-24T13:08:40.798Z,10.36
2023-02-24T13:11:47.262Z,10.37
2023-02-24T13:14:37.241Z,10.38
2023-02-24T13:17:27.216Z,10.37
2023-02-24T13:20:28.767Z,10.36
2023-02-24T13:23:21.308Z,10.34
2023-02-24T13:26:08.878Z,10.30
2023-02-24T13:29:09.302Z,10.28
2023-02-24T13:31:56.679Z,10.28
2023-02-24T13:34:45.295Z,10.30
2023-02-24T13:37:32.199Z,10.32
2023-02-24T13:40:19.100Z,10.34
2023-02-24T13:43:24.165Z,10.40
2023-02-24T13:46:18.451Z,10.44
2023-02-24T13:49:31.195Z,10.44
2023-02-24T13:52:32.639Z,10.46
2023-02-24T13:55:29.535Z,10.48
2023-02-24T13:59:13.631Z,10.49
2023-02-24T14:02:02.790Z,10.47
2023-02-24T14:04:53.090Z,10.44
2023-02-24T14:07:40.660Z,10.37
2023-02-24T14:10:31.238Z,10.32
2023-02-24T14:13:22.387Z,10.23
2023-02-24T14:16:12.471Z,10.15
2023-02-24T14:19:02.980Z,10.16
2023-02-24T14:21:53.991Z,10.23
2023-02-24T14:24:40.947Z,10.32
2023-02-24T14:27:28.132Z,10.40
2023-02-24T14:30:22.801Z,10.48
2023-02-24T14:33:31.558Z,10.49
2023-02-24T14:36:24.550Z,10.50
2023-02-24T14:39:26.395Z,10.55
2023-02-24T14:42:15.887Z,10.66
2023-02-24T14:45:03.040Z,10.78
2023-02-24T14:47:49.942Z,10.81
2023-02-24T14:50:37.126Z,10.91
2023-02-24T14:53:29.829Z,10.90
2023-02-24T14:56:19.196Z,10.84
2023-02-24T14:59:16.195Z,10.80
2023-02-24T15:02:05.057Z,10.94
2023-02-24T15:04:55.085Z,11.24
2023-02-24T15:07:45.459Z,11.54
2023-02-24T15:10:32.774Z,11.78
2023-02-24T15:13:36.205Z,11.83
2023-02-24T15:16:43.814Z,11.74
2023-02-24T15:19:44.055Z,11.68
2023-02-24T15:22:39.349Z,11.65
2023-02-24T15:25:40.707Z,11.57
2023-02-24T15:28:32.341Z,11.42
2023-02-24T15:31:21.824Z,11.29
2023-02-24T15:34:21.737Z,11.12
2023-02-24T15:37:49.621Z,11.00
2023-02-24T15:40:36.678Z,10.88
2023-02-24T15:43:38.712Z,10.79
2023-02-24T15:46:30.333Z,10.74
2023-02-24T15:49:17.290Z,10.70
2023-02-24T15:52:05.340Z,10.67
2023-02-24T15:54:52.861Z,10.65
2023-02-24T15:57:39.919Z,10.61
2023-02-24T16:00:27.366Z,10.53
2023-02-24T16:03:14.402Z,10.47
2023-02-24T16:06:01.372Z,10.39
2023-02-24T16:08:50.292Z,10.31
2023-02-24T16:11:39.933Z,10.21
2023-02-24T16:14:26.912Z,10.13
2023-02-24T16:17:35.653Z,10.05
2023-02-24T16:20:27.857Z,9.97
2023-02-24T16:23:14.895Z,9.90
2023-02-24T16:26:01.864Z,9.86
2023-02-24T16:28:55.359Z,9.81
2023-02-24T16:31:43.035Z,9.76
2023-02-24T16:34:30.094Z,9.71
2023-02-24T16:37:20.110Z,9.68
2023-02-24T16:40:30.749Z,9.66
2023-02-24T16:43:17.945Z,9.64
2023-02-24T16:46:07.808Z,9.68
2023-02-24T16:48:54.827Z,9.71
2023-02-24T16:51:41.836Z,9.78
2023-02-24T16:54:29.418Z,9.82
2023-02-24T16:57:17.108Z,9.85
2023-02-24T17:00:05.332Z,9.86
2023-02-24T17:02:53.374Z,9.89
2023-02-24T17:05:40.315Z,9.89
2023-02-24T17:08:27.280Z,9.90
2023-02-24T17:11:17.171Z,9.87
2023-02-24T17:14:04.594Z,9.89
2023-02-24T17:16:51.969Z,9.85
2023-02-24T17:19:39.189Z,9.82
2023-02-24T17:22:26.218Z,9.80
2023-02-24T17:25:20.109Z,9.79
2023-02-24T17:28:07.827Z,9.77
2023-02-24T17:30:54.919Z,9.75
2023-02-24T17:33:42.169Z,9.73
2023-02-24T17:36:29.075Z,9.70
2023-02-24T17:39:15.986Z,9.66
2023-02-24T17:42:03.098Z,9.61
2023-02-24T17:44:50.184Z,9.56
2023-02-24T17:47:37.129Z,9.50
2023-02-24T17:50:24.092Z,9.46
2023-02-24T17:53:11.410Z,9.37
2023-02-24T17:56:05.577Z,9.34
2023-02-24T17:58:58.601Z,9.26
2023-02-24T18:01:45.580Z,9.19
2023-02-24T18:04:32.499Z,9.16
2023-02-24T18:07:19.799Z,9.14
2023-02-24T18:10:07.593Z,9.13
2023-02-24T18:12:54.595Z,9.11
2023-02-24T18:15:41.624Z,9.07
2023-02-24T18:18:30.348Z,9.00
2023-02-24T18:21:17.386Z,8.89
2023-02-24T18:24:04.704Z,8.82
2023-02-24T18:26:51.615Z,8.73
2023-02-24T18:29:38.582Z,8.66
2023-02-24T18:32:25.677Z,8.55
2023-02-24T18:35:13.403Z,8.49
2023-02-24T18:38:00.328Z,8.45
2023-02-24T18:40:47.323Z,8.40
2023-02-24T18:43:35.618Z,8.38
2023-02-24T18:46:24.792Z,8.29
2023-02-24T18:49:11.993Z,8.26
2023-02-24T18:51:59.724Z,8.20
2023-02-24T18:54:48.525Z,8.16
2023-02-24T18:57:35.505Z,8.13
2023-02-24T19:00:22.630Z,8.08
2023-02-24T19:03:09.766Z,8.04
2023-02-24T19:05:56.734Z,8.00
2023-02-24T19:08:43.649Z,7.95
2023-02-24T19:11:30.706Z,7.89
2023-02-24T19:14:18.048Z,7.85
2023-02-24T19:17:05.168Z,7.82
2023-02-24T19:19:52.505Z,7.77
2023-02-24T19:22:39.416Z,7.73
2023-02-24T19:25:26.447Z,7.67
2023-02-24T19:28:13.382Z,7.60
2023-02-24T19:31:00.520Z,7.56
2023-02-24T19:33:52.999Z,7.52
2023-02-24T19:36:41.260Z,7.45
2023-02-24T19:39:28.303Z,7.40
2023-02-24T19:42:15.211Z,7.39
2023-02-24T19:45:02.206Z,7.34
2023-02-24T19:47:49.114Z,7.32
2023-02-24T19:50:39.913Z,7.29
2023-02-24T19:53:26.886Z,7.29
2023-02-24T19:56:14.331Z,7.28
2023-02-24T19:59:02.576Z,7.24
2023-02-24T20:01:54.371Z,7.24
2023-02-24T20:04:41.324Z,7.22
2023-02-24T20:07:28.399Z,7.21
2023-02-24T20:10:17.382Z,7.20
2023-02-24T20:13:05.008Z,7.18
2023-02-24T20:15:51.910Z,7.17
2023-02-24T20:18:41.285Z,7.15
2023-02-24T20:21:28.550Z,7.11
2023-02-24T20:24:16.591Z,7.08
2023-02-24T20:27:04.803Z,7.05
2023-02-24T20:29:53.550Z,7.02
2023-02-24T20:32:40.920Z,6.99
2023-02-24T20:35:28.497Z,6.96
2023-02-24T20:38:15.476Z,6.91
2023-02-24T20:41:02.697Z,6.88
2023-02-24T20:43:50.323Z,6.86
2023-02-24T20:46:38.160Z,6.81
2023-02-24T20:49:26.946Z,6.76
2023-02-24T20:52:13.853Z,6.72
2023-02-24T20:55:00.805Z,6.69
2023-02-24T20:57:48.880Z,6.66
2023-02-24T21:00:38.523Z,6.63
2023-02-24T21:03:25.665Z,6.57
2023-02-24T21:06:14.571Z,6.53
2023-02-24T21:09:01.542Z,6.48
2023-02-24T21:11:48.554Z,6.45
2023-02-24T21:14:35.521Z,6.42
2023-02-24T21:17:22.808Z,6.40
2023-02-24T21:20:13.690Z,6.37
2023-02-24T21:23:00.930Z,6.34
2023-02-24T21:25:55.595Z,6.32
2023-02-24T21:28:42.562Z,6.29
2023-02-24T21:31:29.582Z,6.28
2023-02-24T21:34:17.218Z,6.25
2023-02-24T21:37:06.003Z,6.20
2023-02-24T21:39:52.953Z,6.20
2023-02-24T21:42:43.131Z,6.17
2023-02-24T21:45:30.121Z,6.16
2023-02-24T21:48:17.159Z,6.16
2023-02-24T21:51:06.787Z,6.12
2023-02-24T21:53:56.917Z,6.11
2023-02-24T21:56:43.961Z,6.08
2023-02-24T21:59:30.890Z,6.03
2023-02-24T22:02:18.108Z,6.02
2023-02-24T22:05:05.355Z,5.99
2023-02-24T22:07:52.676Z,5.98
2023-02-24T22:10:39.611Z,5.95
2023-02-24T22:13:27.460Z,5.94
2023-02-24T22:16:21.402Z,5.93
2023-02-24T22:19:09.045Z,5.90
2023-02-24T22:21:58.960Z,5.88
2023-02-24T22:24:45.985Z,5.88
2023-02-24T22:27:33.581Z,5.85
2023-02-24T22:30:20.670Z,5.78
2023-02-24T22:33:07.640Z,5.74
2023-02-24T22:35:54.688Z,5.70
2023-02-24T22:38:43.053Z,5.67
2023-02-24T22:41:33.003Z,5.62
2023-02-24T22:44:21.143Z,5.58
2023-02-24T22:47:08.309Z,5.57
2023-02-24T22:49:55.337Z,5.56
2023-02-24T22:52:42.271Z,5.56
2023-02-24T22:55:29.391Z,5.56
2023-02-24T22:58:17.214Z,5.52
2023-02-24T23:01:16.617Z,5.54
2023-02-24T23:04:06.182Z,5.54
2023-02-24T23:06:55.217Z,5.49
2023-02-24T23:09:52.397Z,5.42
2023-02-24T23:12:39.290Z,5.37
2023-02-24T23:15:26.259Z,5.33
2023-02-24T23:18:14.057Z,5.29
2023-02-24T23:21:06.044Z,5.28
2023-02-24T23:23:57.845Z,5.29
2023-02-24T23:26:47.791Z,5.27
2023-02-24T23:29:34.821Z,5.28
2023-02-24T23:32:22.096Z,5.29
2023-02-24T23:35:11.556Z,5.29
2023-02-24T23:37:58.558Z,5.28
2023-02-24T23:40:50.654Z,5.30
2023-02-24T23:43:38.923Z,5.33
2023-02-24T23:46:26.082Z,5.32
2023-02-24T23:49:13.142Z,5.29
2023-02-24T23:52:00.124Z,5.29
2023-02-24T23:54:50.034Z,5.31
2023-02-24T23:57:38.226Z,5.31
